Time;durP1;ratioP1;P1;durP2;ratioP2;P2;SDS_P1;SDS_P2;PMS_P1;PMS_P2;Temp;Humidity;BMP_temperature;BMP_pressure;BME280_temperature;BME280_humidity;BME280_pressure;Samples;Min_cycle;Max_cycle;Signal;HPM_P1;HPM_P2
2023/01/10 00:00:06;;;;;;;17.75;2.50;;;;;;;;;;5016167;28;20362;-78
2023/01/10 00:02:32;;;;;;;11.93;2.00;;;;;;;;;;5019119;28;20489;-78
2023/01/10 00:04:58;;;;;;;19.38;2.40;;;;;;;;;;5034409;28;20037;-78
2023/01/10 00:07:24;;;;;;;19.85;2.22;;;;;;;;;;5016244;28;20029;-79
2023/01/10 00:09:50;;;;;;;11.93;1.90;;;;;;;;;;5016594;28;20030;-79
2023/01/10 00:15:00;;;;;;;13.77;3.15;;;;;;;;;;5016093;28;20114;-79
2023/01/10 00:17:26;;;;;;;16.63;2.30;;;;;;;;;;5016078;28;20101;-79
2023/01/10 00:19:52;;;;;;;13.80;2.05;;;;;;;;;;5015928;28;20458;-79
2023/01/10 00:22:22;;;;;;;12.25;2.40;;;;;;;;;;5016122;28;20029;-79
2023/01/10 00:24:48;;;;;;;14.68;2.10;;;;;;;;;;5016105;28;20033;-78
2023/01/10 00:27:19;;;;;;;14.20;3.60;;;;;;;;;;5022733;28;20053;-79
2023/01/10 00:29:45;;;;;;;13.45;2.05;;;;;;;;;;5040544;28;20480;-79
2023/01/10 00:32:11;;;;;;;16.58;2.33;;;;;;;;;;5023279;28;20022;-79
2023/01/10 00:34:37;;;;;;;10.63;1.83;;;;;;;;;;5031852;28;20025;-79
2023/01/10 00:37:03;;;;;;;14.43;2.17;;;;;;;;;;5038930;28;20029;-79
2023/01/10 00:39:30;;;;;;;11.85;2.33;;;;;;;;;;5039435;28;20556;-79
2023/01/10 00:44:40;;;;;;;13.27;2.55;;;;;;;;;;5018285;28;20032;-79
2023/01/10 00:47:07;;;;;;;17.45;2.05;;;;;;;;;;5018384;28;20104;-79
2023/01/10 00:49:32;;;;;;;10.82;2.38;;;;;;;;;;5017834;28;20053;-79
2023/01/10 00:51:59;;;;;;;16.58;2.40;;;;;;;;;;5017941;28;20026;-79
2023/01/10 00:54:25;;;;;;;9.18;1.73;;;;;;;;;;5017829;28;20018;-79
2023/01/10 00:56:51;;;;;;;22.88;2.40;;;;;;;;;;5016999;28;20048;-79
2023/01/10 00:59:17;;;;;;;12.57;1.58;;;;;;;;;;5016938;28;20030;-78
2023/01/10 01:01:43;;;;;;;11.05;1.58;;;;;;;;;;5026867;28;20433;-79
2023/01/10 01:04:09;;;;;;;5.85;1.10;;;;;;;;;;5036975;28;20053;-79
2023/01/10 01:06:42;;;;;;;6.32;1.30;;;;;;;;;;5036528;28;20079;-79
2023/01/10 01:09:08;;;;;;;9.30;1.33;;;;;;;;;;5023915;28;20385;-78
2023/01/10 01:11:34;;;;;;;10.95;1.88;;;;;;;;;;5015214;28;20029;-78
2023/01/10 01:14:00;;;;;;;7.95;1.50;;;;;;;;;;5015972;28;20030;-78
2023/01/10 01:16:26;;;;;;;11.32;2.17;;;;;;;;;;5015908;28;20030;-78
2023/01/10 01:18:52;;;;;;;14.02;2.13;;;;;;;;;;5016894;28;20030;-79
2023/01/10 01:21:20;;;;;;;6.72;1.67;;;;;;;;;;5035388;28;20084;-79
2023/01/10 01:23:46;;;;;;;12.88;2.30;;;;;;;;;;5035573;28;20024;-79
2023/01/10 01:26:12;;;;;;;16.38;2.38;;;;;;;;;;5035248;28;20503;-79
2023/01/10 01:28:45;;;;;;;15.93;1.95;;;;;;;;;;5034741;28;20029;-78
2023/01/10 01:31:11;;;;;;;15.48;3.10;;;;;;;;;;5035149;28;20434;-79
2023/01/10 01:33:37;;;;;;;22.27;3.05;;;;;;;;;;5034763;28;20105;-79
2023/01/10 01:36:07;;;;;;;12.85;2.25;;;;;;;;;;5034792;28;20028;-79
2023/01/10 01:38:34;;;;;;;21.88;3.63;;;;;;;;;;5031603;28;20389;-79
2023/01/10 01:41:00;;;;;;;18.73;2.90;;;;;;;;;;4997152;28;20073;-79
2023/01/10 01:43:27;;;;;;;19.20;3.03;;;;;;;;;;5022765;28;20022;-78
2023/01/10 01:45:54;;;;;;;20.30;3.13;;;;;;;;;;5034813;28;20345;-78
2023/01/10 01:48:32;;;;;;;13.10;2.60;;;;;;;;;;5017285;28;20030;-78
2023/01/10 01:51:18;;;;;;;18.38;2.42;;;;;;;;;;5015493;28;20033;-79
2023/01/10 01:53:52;;;;;;;19.60;2.65;;;;;;;;;;5014898;28;20030;-79
2023/01/10 01:56:24;;;;;;;14.02;2.72;;;;;;;;;;5014287;28;20061;-78
2023/01/10 01:59:01;;;;;;;14.15;2.28;;;;;;;;;;5014302;28;20404;-78
2023/01/10 02:01:28;;;;;;;11.07;2.33;;;;;;;;;;5014376;28;20058;-79
2023/01/10 02:03:58;;;;;;;12.82;1.73;;;;;;;;;;5033949;28;20054;-79
2023/01/10 02:06:25;;;;;;;15.93;3.10;;;;;;;;;;5034355;28;20490;-79
2023/01/10 02:09:14;;;;;;;12.30;1.90;;;;;;;;;;5033824;28;20028;-78
2023/01/10 02:11:40;;;;;;;13.43;2.13;;;;;;;;;;4997500;28;20087;-78
2023/01/10 02:14:07;;;;;;;13.07;2.63;;;;;;;;;;5034139;28;20030;-79
2023/01/10 02:16:33;;;;;;;14.65;2.63;;;;;;;;;;5033856;28;20034;-79
2023/01/10 02:18:59;;;;;;;17.17;3.38;;;;;;;;;;5036601;28;20492;-79
2023/01/10 02:21:30;;;;;;;14.48;2.85;;;;;;;;;;5040115;28;20067;-79
2023/01/10 02:23:56;;;;;;;;;;;;;;;;;;5042918;28;20025;-79
2023/01/10 02:26:45;;;;;;;12.85;3.95;;;;;;;;;;5042192;28;20406;-79
2023/01/10 02:29:14;;;;;;;14.63;2.40;;;;;;;;;;5042414;28;20037;-79
2023/01/10 02:31:40;;;;;;;23.95;3.92;;;;;;;;;;5041860;28;20021;-79
2023/01/10 02:34:14;;;;;;;15.73;2.63;;;;;;;;;;5041482;28;20027;-79
2023/01/10 02:36:52;;;;;;;16.10;3.58;;;;;;;;;;5041135;28;20022;-79
2023/01/10 02:39:18;;;;;;;13.05;2.55;;;;;;;;;;5031494;28;20507;-79
2023/01/10 02:41:54;;;;;;;11.07;2.50;;;;;;;;;;5026112;28;20033;-79
2023/01/10 02:44:24;;;;;;;17.65;3.35;;;;;;;;;;5022920;28;20030;-79
2023/01/10 02:46:50;;;;;;;;;;;;;;;;;;5026356;28;20407;-79
2023/01/10 02:49:16;;;;;;;15.82;2.47;;;;;;;;;;5040362;28;19968;-79
2023/01/10 02:51:42;;;;;;;16.73;3.00;;;;;;;;;;5040070;28;20122;-79
2023/01/10 02:54:13;;;;;;;9.93;2.20;;;;;;;;;;5040147;28;20124;-79
2023/01/10 02:56:45;;;;;;;16.63;2.65;;;;;;;;;;5038903;28;20121;-78
2023/01/10 02:59:11;;;;;;;11.52;2.05;;;;;;;;;;5039797;28;20025;-78
2023/01/10 03:01:48;;;;;;;10.15;2.25;;;;;;;;;;5038634;28;20029;-78
2023/01/10 03:04:40;;;;;;;18.63;2.75;;;;;;;;;;5037519;28;20049;-79
2023/01/10 03:07:15;;;;;;;14.63;2.28;;;;;;;;;;5008408;28;20492;-79
2023/01/10 03:09:47;;;;;;;14.93;2.28;;;;;;;;;;5020336;28;20030;-79
2023/01/10 03:12:18;;;;;;;24.45;3.53;;;;;;;;;;5038797;28;20053;-79
2023/01/10 03:14:45;;;;;;;22.33;4.50;;;;;;;;;;5020299;28;20036;-78
2023/01/10 03:17:11;;;;;;;15.20;3.67;;;;;;;;;;5038508;28;20037;-79
2023/01/10 03:19:40;;;;;;;20.63;3.67;;;;;;;;;;5038089;28;20029;-79
2023/01/10 03:22:09;;;;;;;16.38;3.05;;;;;;;;;;5038023;28;20075;-79
2023/01/10 03:24:40;;;;;;;23.20;2.97;;;;;;;;;;5020852;28;20034;-79
2023/01/10 03:27:26;;;;;;;18.50;2.40;;;;;;;;;;5036878;28;20025;-79
2023/01/10 03:30:16;;;;;;;16.42;2.63;;;;;;;;;;5023465;28;20042;-79
2023/01/10 03:32:42;;;;;;;15.77;3.60;;;;;;;;;;5036730;28;20029;-79
2023/01/10 03:35:09;;;;;;;13.02;2.72;;;;;;;;;;5040752;28;20025;-79
2023/01/10 03:37:55;;;;;;;19.70;3.30;;;;;;;;;;5033064;28;20388;-79
2023/01/10 03:40:24;;;;;;;26.00;3.40;;;;;;;;;;5041689;28;20029;-79
2023/01/10 03:45:48;;;;;;;16.17;2.58;;;;;;;;;;5024693;28;20456;-79
2023/01/10 03:48:16;;;;;;;13.73;2.05;;;;;;;;;;5033536;28;20034;-78
2023/01/10 03:50:42;;;;;;;14.65;2.60;;;;;;;;;;5039582;28;20108;-79
2023/01/10 03:53:09;;;;;;;17.20;2.70;;;;;;;;;;5030824;28;20445;-79
2023/01/10 03:55:36;;;;;;;14.48;2.67;;;;;;;;;;5038953;28;20370;-79
2023/01/10 03:58:02;;;;;;;12.45;2.58;;;;;;;;;;5038422;28;20112;-79
2023/01/10 04:00:28;;;;;;;10.90;2.20;;;;;;;;;;5038556;28;20055;-79
2023/01/10 04:02:56;;;;;;;5.15;1.23;;;;;;;;;;5038958;28;20049;-79
2023/01/10 04:05:22;;;;;;;9.52;1.60;;;;;;;;;;5038428;28;20025;-79
2023/01/10 04:07:48;;;;;;;7.10;1.10;;;;;;;;;;5019741;28;20057;-79
2023/01/10 04:10:14;;;;;;;6.88;1.85;;;;;;;;;;5029104;28;20032;-79
2023/01/10 04:12:40;;;;;;;10.07;1.40;;;;;;;;;;5037546;28;20036;-79
2023/01/10 04:15:06;;;;;;;5.75;1.17;;;;;;;;;;5037882;28;20021;-79
2023/01/10 04:17:33;;;;;;;8.68;1.60;;;;;;;;;;5038044;28;20476;-79
2023/01/10 04:19:59;;;;;;;11.95;1.92;;;;;;;;;;5038440;28;20044;-79
2023/01/10 04:22:25;;;;;;;12.13;2.33;;;;;;;;;;5037325;28;20396;-79
2023/01/10 04:24:52;;;;;;;10.75;2.17;;;;;;;;;;5037758;28;20037;-79
2023/01/10 04:27:19;;;;;;;10.27;3.63;;;;;;;;;;5037691;28;20154;-79
2023/01/10 04:29:45;;;;;;;11.65;1.83;;;;;;;;;;5019561;28;20385;-78
2023/01/10 04:32:11;;;;;;;11.38;1.80;;;;;;;;;;5037134;28;20076;-79
2023/01/10 04:34:37;;;;;;;7.75;1.45;;;;;;;;;;5037670;28;20380;-79
2023/01/10 04:37:03;;;;;;;4.93;1.38;;;;;;;;;;5037088;28;20085;-79
2023/01/10 04:39:29;;;;;;;9.43;1.88;;;;;;;;;;5036823;28;20077;-78
2023/01/10 04:41:55;;;;;;;9.23;1.65;;;;;;;;;;5036190;28;20529;-79
2023/01/10 04:44:21;;;;;;;10.07;2.38;;;;;;;;;;5036379;28;20033;-79
2023/01/10 04:46:47;;;;;;;10.75;2.20;;;;;;;;;;5023993;28;20038;-79
2023/01/10 04:49:13;;;;;;;15.70;2.15;;;;;;;;;;5017244;28;20036;-79
2023/01/10 04:51:39;;;;;;;14.95;2.67;;;;;;;;;;5027849;28;20557;-79
2023/01/10 04:54:06;;;;;;;14.75;3.22;;;;;;;;;;5036328;28;20053;-79
2023/01/10 04:56:32;;;;;;;12.70;2.38;;;;;;;;;;5036117;28;20026;-79
2023/01/10 04:58:58;;;;;;;17.05;3.72;;;;;;;;;;5035249;28;20099;-79
2023/01/10 05:01:25;;;;;;;15.13;3.33;;;;;;;;;;5013920;28;20507;-79
2023/01/10 05:03:52;;;;;;;15.98;2.45;;;;;;;;;;5014852;28;20084;-79
2023/01/10 05:06:18;;;;;;;17.15;2.50;;;;;;;;;;5015185;28;20034;-79
2023/01/10 05:08:45;;;;;;;12.27;2.25;;;;;;;;;;5025614;28;20032;-79
2023/01/10 05:11:11;;;;;;;19.42;2.97;;;;;;;;;;5014059;28;20461;-79
2023/01/10 05:13:38;;;;;;;16.38;2.30;;;;;;;;;;5014147;28;20092;-79
2023/01/10 05:16:05;;;;;;;19.75;3.30;;;;;;;;;;5013961;28;20026;-79
2023/01/10 05:18:31;;;;;;;18.45;2.70;;;;;;;;;;5013847;28;20437;-78
2023/01/10 05:21:00;;;;;;;18.92;2.97;;;;;;;;;;5013810;28;20080;-79
2023/01/10 05:23:27;;;;;;;22.42;3.00;;;;;;;;;;5013790;28;20026;-79
2023/01/10 05:25:53;;;;;;;17.60;2.70;;;;;;;;;;5029749;28;20036;-79
2023/01/10 05:28:19;;;;;;;12.13;2.15;;;;;;;;;;5022689;28;20057;-79
2023/01/10 05:30:45;;;;;;;19.42;3.53;;;;;;;;;;5029836;28;20022;-79
2023/01/10 05:33:11;;;;;;;18.65;2.45;;;;;;;;;;5035974;28;20026;-79
2023/01/10 05:35:37;;;;;;;11.73;2.22;;;;;;;;;;5039729;28;20029;-79
2023/01/10 05:38:03;;;;;;;19.40;3.78;;;;;;;;;;5036016;28;20029;-79
2023/01/10 05:40:29;;;;;;;17.33;2.80;;;;;;;;;;5033245;28;20135;-79
2023/01/10 05:42:55;;;;;;;16.73;3.50;;;;;;;;;;5032610;28;20480;-79
2023/01/10 05:45:22;;;;;;;13.80;3.22;;;;;;;;;;5033533;28;20031;-79
2023/01/10 05:47:48;;;;;;;13.15;2.28;;;;;;;;;;5033543;28;20452;-79
2023/01/10 05:50:14;;;;;;;13.45;3.38;;;;;;;;;;5033467;28;20037;-78
2023/01/10 05:52:40;;;;;;;22.08;2.50;;;;;;;;;;5033764;28;20030;-78
2023/01/10 05:55:06;;;;;;;20.08;2.85;;;;;;;;;;5033379;28;20022;-79
2023/01/10 05:57:32;;;;;;;16.15;2.65;;;;;;;;;;5035319;28;20025;-79
2023/01/10 05:59:58;;;;;;;17.45;2.83;;;;;;;;;;5037534;28;20056;-79
2023/01/10 06:02:25;;;;;;;21.13;3.55;;;;;;;;;;5037166;28;20032;-78
2023/01/10 06:04:51;;;;;;;20.25;3.08;;;;;;;;;;5037430;28;20080;-78
2023/01/10 06:07:17;;;;;;;17.80;3.28;;;;;;;;;;5036948;28;20026;-78
2023/01/10 06:09:43;;;;;;;25.45;2.75;;;;;;;;;;5037302;28;20121;-78
2023/01/10 06:12:09;;;;;;;19.23;3.22;;;;;;;;;;5036866;28;20030;-78
2023/01/10 06:14:35;;;;;;;24.38;3.17;;;;;;;;;;5019669;28;20423;-78
2023/01/10 06:17:01;;;;;;;18.70;3.08;;;;;;;;;;5036855;28;20029;-78
2023/01/10 06:19:27;;;;;;;21.05;3.30;;;;;;;;;;5019158;28;20116;-78
2023/01/10 06:21:53;;;;;;;21.75;3.67;;;;;;;;;;5037129;28;20516;-78
2023/01/10 06:24:19;;;;;;;17.02;2.83;;;;;;;;;;5037149;28;20068;-78
2023/01/10 06:26:45;;;;;;;19.95;3.25;;;;;;;;;;5036868;28;20036;-78
2023/01/10 06:29:11;;;;;;;20.35;3.60;;;;;;;;;;5036985;28;20033;-78
2023/01/10 06:31:37;;;;;;;26.55;3.80;;;;;;;;;;5036610;28;20026;-78
2023/01/10 06:34:03;;;;;;;20.77;3.38;;;;;;;;;;5036635;28;20139;-78
2023/01/10 06:36:29;;;;;;;19.73;3.13;;;;;;;;;;5037282;28;20396;-78
2023/01/10 06:38:55;;;;;;;21.02;3.35;;;;;;;;;;5037102;28;20033;-78
2023/01/10 06:41:21;;;;;;;29.05;3.92;;;;;;;;;;5036604;28;20036;-78
2023/01/10 06:43:50;;;;;;;22.63;3.75;;;;;;;;;;5036548;28;20100;-78
2023/01/10 06:46:22;;;;;;;27.05;4.03;;;;;;;;;;5018769;28;20050;-78
2023/01/10 06:48:48;;;;;;;18.00;3.85;;;;;;;;;;5017023;28;20108;-79
2023/01/10 06:51:14;;;;;;;17.95;3.42;;;;;;;;;;5036390;28;20104;-79
2023/01/10 06:53:40;;;;;;;22.58;3.17;;;;;;;;;;5036621;28;20071;-79
2023/01/10 06:56:08;;;;;;;25.63;3.42;;;;;;;;;;5037065;28;20021;-79
2023/01/10 06:58:34;;;;;;;16.42;3.40;;;;;;;;;;5036449;28;20013;-79
2023/01/10 07:01:01;;;;;;;20.35;3.42;;;;;;;;;;5036098;28;20426;-79
2023/01/10 07:03:27;;;;;;;27.67;4.63;;;;;;;;;;5035874;28;20080;-79
2023/01/10 07:05:53;;;;;;;17.75;3.47;;;;;;;;;;5036300;28;20021;-79
2023/01/10 07:08:18;;;;;;;22.27;3.25;;;;;;;;;;5034718;28;20034;-79
2023/01/10 07:10:45;;;;;;;17.50;3.78;;;;;;;;;;5036282;28;20030;-79
2023/01/10 07:13:11;;;;;;;17.27;3.03;;;;;;;;;;5036297;28;20021;-79
2023/01/10 07:15:37;;;;;;;12.90;3.00;;;;;;;;;;5032641;28;20043;-79
2023/01/10 07:18:03;;;;;;;18.15;3.70;;;;;;;;;;5014809;28;20030;-79
2023/01/10 07:20:29;;;;;;;17.63;3.53;;;;;;;;;;5019605;28;20037;-79
2023/01/10 07:22:56;;;;;;;15.88;4.10;;;;;;;;;;5029772;28;20030;-79
2023/01/10 07:25:22;;;;;;;19.67;3.78;;;;;;;;;;5023572;28;20026;-79
2023/01/10 07:27:48;;;;;;;15.82;2.88;;;;;;;;;;5042812;28;20026;-79
2023/01/10 07:30:14;;;;;;;20.08;3.42;;;;;;;;;;5024652;28;20037;-79
2023/01/10 07:32:40;;;;;;;19.02;3.20;;;;;;;;;;5040966;28;20026;-79
2023/01/10 07:35:07;;;;;;;17.92;3.38;;;;;;;;;;5041609;28;20017;-79
2023/01/10 07:37:33;;;;;;;18.92;3.15;;;;;;;;;;5040178;28;20037;-79
2023/01/10 07:39:59;;;;;;;13.15;3.35;;;;;;;;;;5040809;28;20083;-79
2023/01/10 07:42:25;;;;;;;20.90;3.20;;;;;;;;;;5040142;28;20033;-79
2023/01/10 07:44:51;;;;;;;17.45;3.17;;;;;;;;;;5042206;28;20033;-79
2023/01/10 07:47:41;;;;;;;20.05;3.63;;;;;;;;;;5039318;28;20022;-79
2023/01/10 07:50:08;;;;;;;;;;;;;;;;;;5025772;28;20021;-79
2023/01/10 07:52:37;;;;;;;15.55;3.17;;;;;;;;;;5038789;28;20003;-79
2023/01/10 07:55:03;;;;;;;17.13;3.45;;;;;;;;;;5038155;28;20017;-79
2023/01/10 07:57:29;;;;;;;16.60;2.90;;;;;;;;;;5035731;28;20029;-79
2023/01/10 08:00:03;;;;;;;16.42;3.00;;;;;;;;;;5035598;28;20060;-79
2023/01/10 08:02:29;;;;;;;21.83;2.88;;;;;;;;;;5038758;28;20472;-79
2023/01/10 08:04:55;;;;;;;17.02;3.22;;;;;;;;;;5034913;28;20171;-79
2023/01/10 08:07:21;;;;;;;22.90;2.67;;;;;;;;;;5037533;28;20056;-79
2023/01/10 08:09:47;;;;;;;20.05;3.17;;;;;;;;;;5019728;28;20075;-79
2023/01/10 08:12:13;;;;;;;15.15;2.60;;;;;;;;;;5034577;28;20891;-79
2023/01/10 08:14:39;;;;;;;16.75;2.92;;;;;;;;;;5039004;28;20025;-79
2023/01/10 08:17:05;;;;;;;13.02;3.03;;;;;;;;;;5035580;28;20033;-79
2023/01/10 08:19:31;;;;;;;14.07;3.15;;;;;;;;;;5035159;28;20049;-79
2023/01/10 08:21:57;;;;;;;24.35;3.80;;;;;;;;;;5013589;28;20491;-79
2023/01/10 08:24:23;;;;;;;23.25;3.42;;;;;;;;;;5015449;28;20385;-79
2023/01/10 08:26:49;;;;;;;17.48;3.53;;;;;;;;;;5016630;28;20033;-79
2023/01/10 08:29:15;;;;;;;19.10;3.33;;;;;;;;;;5016711;28;20109;-79
2023/01/10 08:31:41;;;;;;;17.17;3.55;;;;;;;;;;5016106;28;20424;-79
2023/01/10 08:34:07;;;;;;;14.20;3.17;;;;;;;;;;5020122;28;20040;-79
2023/01/10 08:36:33;;;;;;;15.90;3.60;;;;;;;;;;5036976;28;20396;-79
2023/01/10 08:38:59;;;;;;;18.02;3.28;;;;;;;;;;5035063;28;20032;-79
2023/01/10 08:41:25;;;;;;;17.20;3.10;;;;;;;;;;5036066;28;20064;-79
2023/01/10 08:43:51;;;;;;;21.67;3.60;;;;;;;;;;5026592;28;20033;-79
2023/01/10 08:46:19;;;;;;;21.20;3.67;;;;;;;;;;5015410;28;20026;-79
2023/01/10 08:48:45;;;;;;;22.40;4.30;;;;;;;;;;5016905;28;20453;-79
2023/01/10 08:51:11;;;;;;;14.60;3.00;;;;;;;;;;5015573;28;20025;-79
2023/01/10 08:53:40;;;;;;;16.33;3.35;;;;;;;;;;5015005;28;20424;-79
2023/01/10 08:56:07;;;;;;;12.32;3.42;;;;;;;;;;5034767;28;20037;-79
2023/01/10 08:58:33;;;;;;;18.65;3.60;;;;;;;;;;5018294;28;20029;-79
2023/01/10 09:01:12;;;;;;;9.85;2.33;;;;;;;;;;5034604;28;20022;-79
2023/01/10 09:03:38;;;;;;;12.93;3.10;;;;;;;;;;5027323;28;20050;-79
2023/01/10 09:06:05;;;;;;;20.17;3.08;;;;;;;;;;5032822;28;20025;-79
2023/01/10 09:08:31;;;;;;;14.52;2.70;;;;;;;;;;5014627;28;20389;-79
2023/01/10 09:11:00;;;;;;;18.20;2.78;;;;;;;;;;5026185;28;20411;-79
2023/01/10 09:13:26;;;;;;;13.15;3.95;;;;;;;;;;5037715;28;20107;-79
2023/01/10 09:15:52;;;;;;;11.73;2.72;;;;;;;;;;5040377;28;20106;-79
2023/01/10 09:18:25;;;;;;;13.75;3.25;;;;;;;;;;5038623;28;20109;-79
2023/01/10 09:20:51;;;;;;;17.83;3.38;;;;;;;;;;5035468;28;20037;-79
2023/01/10 09:23:19;;;;;;;12.43;3.10;;;;;;;;;;5039282;28;20425;-79
2023/01/10 09:25:49;;;;;;;13.23;3.40;;;;;;;;;;5040292;28;20085;-79
2023/01/10 09:28:15;;;;;;;9.93;2.83;;;;;;;;;;5023170;28;20029;-79
2023/01/10 09:30:41;;;;;;;21.98;3.30;;;;;;;;;;5034880;28;20100;-79
2023/01/10 09:33:07;;;;;;;16.00;3.40;;;;;;;;;;5044102;28;20036;-79
2023/01/10 09:35:35;;;;;;;14.00;2.88;;;;;;;;;;5046447;28;20028;-79
2023/01/10 09:38:02;;;;;;;11.82;2.95;;;;;;;;;;5044920;28;20030;-79
2023/01/10 09:40:37;;;;;;;14.57;2.88;;;;;;;;;;5044392;28;20025;-79
2023/01/10 09:43:23;;;;;;;18.67;4.35;;;;;;;;;;5014201;28;20121;-79
2023/01/10 09:45:53;;;;;;;12.77;2.97;;;;;;;;;;5008763;28;20073;-79
2023/01/10 09:48:31;;;;;;;14.18;2.65;;;;;;;;;;5032200;28;20041;-79
2023/01/10 09:51:16;;;;;;;12.23;2.78;;;;;;;;;;5024415;28;20029;-79
2023/01/10 09:53:44;;;;;;;18.75;3.30;;;;;;;;;;5023200;28;20029;-79
2023/01/10 09:56:13;;;;;;;15.63;4.38;;;;;;;;;;5040253;28;20388;-79
2023/01/10 09:58:39;;;;;;;20.35;3.30;;;;;;;;;;5041811;28;20494;-79
2023/01/10 10:01:16;;;;;;;16.75;3.65;;;;;;;;;;5023628;28;20025;-79
2023/01/10 10:04:01;;;;;;;18.23;3.10;;;;;;;;;;5041500;28;20058;-79
2023/01/10 10:06:27;;;;;;;18.40;3.03;;;;;;;;;;5025095;28;20057;-79
2023/01/10 10:08:53;;;;;;;19.15;2.58;;;;;;;;;;5042543;28;20025;-79
2023/01/10 10:11:26;;;;;;;15.27;2.95;;;;;;;;;;5039766;28;20025;-79
2023/01/10 10:14:10;;;;;;;18.42;3.00;;;;;;;;;;5040303;28;20025;-79
2023/01/10 10:16:44;;;;;;;14.55;2.90;;;;;;;;;;5041394;28;20542;-79
2023/01/10 10:19:10;;;;;;;17.55;2.55;;;;;;;;;;5039874;28;20539;-79
2023/01/10 10:21:45;;;;;;;24.00;4.60;;;;;;;;;;5039820;28;20025;-79
2023/01/10 10:24:29;;;;;;;21.60;4.10;;;;;;;;;;5042713;28;20026;-79
2023/01/10 10:27:07;;;;;;;14.88;3.40;;;;;;;;;;5039341;28;20036;-79
2023/01/10 10:29:44;;;;;;;15.05;3.90;;;;;;;;;;5039356;28;20017;-79
2023/01/10 10:32:13;;;;;;;16.50;2.92;;;;;;;;;;5032259;28;20037;-79
2023/01/10 10:34:39;;;;;;;18.20;3.42;;;;;;;;;;5039325;28;20053;-79
2023/01/10 10:37:08;;;;;;;25.25;3.97;;;;;;;;;;5040558;28;20034;-79
2023/01/10 10:39:37;;;;;;;14.18;3.28;;;;;;;;;;5041023;28;20120;-79
2023/01/10 10:42:04;;;;;;;22.23;4.70;;;;;;;;;;5039256;28;20109;-79
2023/01/10 10:44:36;;;;;;;16.85;2.95;;;;;;;;;;5021975;28;20077;-79
2023/01/10 10:47:26;;;;;;;18.95;3.63;;;;;;;;;;5032218;28;20032;-79
2023/01/10 10:49:56;;;;;;;20.50;3.50;;;;;;;;;;5018770;28;20531;-78
2023/01/10 10:52:24;;;;;;;17.83;2.90;;;;;;;;;;5026773;28;20018;-79
2023/01/10 10:54:50;;;;;;;18.15;3.60;;;;;;;;;;5035574;28;20028;-79
2023/01/10 10:57:17;;;;;;;19.52;3.55;;;;;;;;;;5037553;28;20038;-79
2023/01/10 10:59:44;;;;;;;19.05;3.47;;;;;;;;;;5019975;28;20033;-79
2023/01/10 11:02:30;;;;;;;20.63;3.28;;;;;;;;;;5037751;28;20071;-79
2023/01/10 11:04:58;;;;;;;15.07;3.22;;;;;;;;;;5036853;28;20053;-79
2023/01/10 11:07:28;;;;;;;15.73;3.70;;;;;;;;;;5042340;28;20037;-80
2023/01/10 11:12:32;;;;;;;15.30;4.95;;;;;;;;;;5043950;28;20034;-79
2023/01/10 11:14:58;;;;;;;16.25;3.88;;;;;;;;;;5025708;28;20476;-79
2023/01/10 11:17:30;;;;;;;14.55;3.03;;;;;;;;;;5042887;28;20056;-79
2023/01/10 11:20:02;;;;;;;18.13;3.92;;;;;;;;;;5043653;28;20037;-79
2023/01/10 11:22:29;;;;;;;19.02;3.65;;;;;;;;;;5040758;28;20030;-79
2023/01/10 11:24:57;;;;;;;21.70;3.97;;;;;;;;;;5041300;28;20076;-79
2023/01/10 11:27:25;;;;;;;19.10;4.38;;;;;;;;;;5026577;28;20029;-79
2023/01/10 11:29:52;;;;;;;19.55;3.80;;;;;;;;;;5041977;28;20079;-79
2023/01/10 11:32:20;;;;;;;23.67;4.75;;;;;;;;;;5040781;28;20030;-79
2023/01/10 11:34:54;;;;;;;18.73;3.83;;;;;;;;;;5024309;28;20025;-78
2023/01/10 11:37:31;;;;;;;26.75;5.35;;;;;;;;;;5037565;28;20033;-79
2023/01/10 11:40:10;;;;;;;18.23;4.28;;;;;;;;;;5038465;28;20029;-79
2023/01/10 11:42:36;;;;;;;17.23;4.43;;;;;;;;;;5026380;28;20038;-79
2023/01/10 11:45:17;;;;;;;20.65;4.28;;;;;;;;;;5019011;28;20033;-79
2023/01/10 11:48:04;;;;;;;18.23;4.53;;;;;;;;;;5034768;28;20064;-79
2023/01/10 11:50:32;;;;;;;20.02;4.03;;;;;;;;;;5019987;28;20037;-79
2023/01/10 11:52:58;;;;;;;20.67;5.00;;;;;;;;;;5037342;28;20029;-79
2023/01/10 11:55:28;;;;;;;18.80;4.15;;;;;;;;;;5037494;28;20029;-79
2023/01/10 11:57:56;;;;;;;17.15;4.25;;;;;;;;;;5004016;28;20030;-79
2023/01/10 12:00:22;;;;;;;15.73;3.67;;;;;;;;;;5027428;28;20056;-80
2023/01/10 12:02:51;;;;;;;21.80;3.85;;;;;;;;;;5027331;28;20049;-79
2023/01/10 12:05:22;;;;;;;21.30;4.05;;;;;;;;;;5035721;28;20037;-79
2023/01/10 12:07:58;;;;;;;18.75;4.28;;;;;;;;;;5034596;28;20107;-79
2023/01/10 12:10:25;;;;;;;14.88;3.58;;;;;;;;;;5032596;28;20375;-79
2023/01/10 12:12:56;;;;;;;18.42;4.07;;;;;;;;;;5032325;28;20033;-79
2023/01/10 12:15:35;;;;;;;19.63;4.38;;;;;;;;;;5002090;28;20109;-79
2023/01/10 12:18:03;;;;;;;19.05;4.05;;;;;;;;;;5019765;28;20455;-79
2023/01/10 12:20:31;;;;;;;18.23;3.55;;;;;;;;;;5018416;28;20030;-79
2023/01/10 12:23:01;;;;;;;12.82;3.17;;;;;;;;;;5015817;28;20030;-78
2023/01/10 12:25:34;;;;;;;20.50;5.90;;;;;;;;;;5024174;28;20032;-79
2023/01/10 12:28:00;;;;;;;14.40;3.72;;;;;;;;;;5039983;28;20484;-78
2023/01/10 12:30:48;;;;;;;14.07;3.53;;;;;;;;;;5036668;28;20029;-79
2023/01/10 12:33:19;;;;;;;20.17;5.35;;;;;;;;;;5038191;28;20032;-79
2023/01/10 12:36:13;;;;;;;16.40;3.83;;;;;;;;;;5036744;28;20030;-79
2023/01/10 12:44:41;;;;;;;15.35;3.78;;;;;;;;;;5037119;28;20415;-79
2023/01/10 12:47:26;;;;;;;15.18;4.13;;;;;;;;;;5018390;28;20029;-79
2023/01/10 12:49:55;;;;;;;16.52;4.82;;;;;;;;;;5036627;28;20036;-79
2023/01/10 12:52:29;;;;;;;18.08;3.35;;;;;;;;;;5032541;28;20693;-79
2023/01/10 12:54:55;;;;;;;19.58;3.85;;;;;;;;;;5034108;28;20022;-78
2023/01/10 12:57:32;;;;;;;14.50;3.72;;;;;;;;;;5039672;28;20029;-79
2023/01/10 13:00:00;;;;;;;15.93;3.25;;;;;;;;;;5025472;28;20029;-79
2023/01/10 13:02:28;;;;;;;18.88;3.45;;;;;;;;;;5039930;28;20064;-79
2023/01/10 13:05:00;;;;;;;24.77;4.25;;;;;;;;;;5040266;28;20080;-79
2023/01/10 13:07:28;;;;;;;17.60;3.88;;;;;;;;;;5039620;28;20415;-79
2023/01/10 13:09:55;;;;;;;17.10;4.05;;;;;;;;;;5035660;28;20487;-79
2023/01/10 13:12:33;;;;;;;17.98;3.40;;;;;;;;;;5034845;28;20108;-79
2023/01/10 13:15:17;;;;;;;17.45;3.85;;;;;;;;;;5022447;28;20025;-79
2023/01/10 13:17:46;;;;;;;17.67;3.38;;;;;;;;;;5037336;28;20071;-79
2023/01/10 13:20:15;;;;;;;18.95;3.55;;;;;;;;;;5035030;28;20047;-79
2023/01/10 13:22:42;;;;;;;18.25;3.05;;;;;;;;;;5037927;28;20349;-79
2023/01/10 13:25:23;;;;;;;17.73;3.20;;;;;;;;;;5036849;28;20029;-79
2023/01/10 13:27:49;;;;;;;;;;;;;;;;;;5032033;28;20112;-78
2023/01/10 13:30:25;;;;;;;17.52;3.03;;;;;;;;;;5031218;28;19913;-78
2023/01/10 13:32:58;;;;;;;16.52;2.40;;;;;;;;;;5036506;28;20025;-78
2023/01/10 13:35:27;;;;;;;15.73;2.85;;;;;;;;;;5035992;28;20495;-78
2023/01/10 13:37:54;;;;;;;13.85;2.95;;;;;;;;;;5036816;28;20025;-78
2023/01/10 13:40:27;;;;;;;16.73;3.30;;;;;;;;;;5035837;28;20112;-78
2023/01/10 13:43:17;;;;;;;18.77;3.20;;;;;;;;;;5035630;28;20018;-79
2023/01/10 13:45:43;;;;;;;16.55;2.55;;;;;;;;;;5017639;28;20040;-79
2023/01/10 13:48:26;;;;;;;19.60;3.38;;;;;;;;;;5024393;28;20469;-79
2023/01/10 13:51:05;;;;;;;13.18;2.55;;;;;;;;;;5016009;28;20034;-79
2023/01/10 13:53:31;;;;;;;19.88;2.30;;;;;;;;;;5037807;28;20389;-79
2023/01/10 13:55:57;;;;;;;16.13;2.05;;;;;;;;;;5033983;28;20476;-79
2023/01/10 14:04:07;;;;;;;12.02;2.60;;;;;;;;;;5031328;28;20076;-79
2023/01/10 14:06:39;;;;;;;16.15;3.10;;;;;;;;;;5016961;28;20105;-78
2023/01/10 14:09:26;;;;;;;16.27;2.25;;;;;;;;;;5023360;28;20029;-79
2023/01/10 14:11:54;;;;;;;12.57;2.00;;;;;;;;;;5020350;28;20040;-79
2023/01/10 14:14:20;;;;;;;14.65;3.13;;;;;;;;;;5036568;28;20033;-79
2023/01/10 14:16:48;;;;;;;14.02;2.40;;;;;;;;;;5024451;28;20030;-79
2023/01/10 14:19:40;;;;;;;11.35;2.20;;;;;;;;;;5019004;28;20029;-79
2023/01/10 14:22:06;;;;;;;11.20;1.95;;;;;;;;;;5027646;28;20033;-79
2023/01/10 14:24:39;;;;;;;14.45;2.95;;;;;;;;;;5040205;28;20473;-79
2023/01/10 14:27:07;;;;;;;13.38;2.70;;;;;;;;;;5038336;28;20049;-78
2023/01/10 14:29:33;;;;;;;13.88;2.33;;;;;;;;;;5038961;28;20028;-79
2023/01/10 14:32:00;;;;;;;17.92;2.50;;;;;;;;;;5031585;28;20075;-79
2023/01/10 14:34:43;;;;;;;12.27;2.30;;;;;;;;;;5029293;28;20495;-79
2023/01/10 14:37:17;;;;;;;16.75;2.95;;;;;;;;;;5028623;28;20025;-79
2023/01/10 14:39:43;;;;;;;13.32;2.53;;;;;;;;;;5030449;28;20056;-79
2023/01/10 14:42:13;;;;;;;12.73;2.58;;;;;;;;;;5038718;28;20105;-79
2023/01/10 14:44:50;;;;;;;15.25;2.92;;;;;;;;;;5024347;28;20392;-79
2023/01/10 14:47:27;;;;;;;10.23;2.38;;;;;;;;;;5024927;28;20029;-79
2023/01/10 14:50:11;;;;;;;10.65;2.85;;;;;;;;;;5039044;28;20026;-79
2023/01/10 14:52:42;;;;;;;10.90;2.40;;;;;;;;;;5036776;28;20037;-79
2023/01/10 14:55:12;;;;;;;12.13;2.97;;;;;;;;;;5037997;28;20021;-79
2023/01/10 14:57:38;;;;;;;;;;;;;;;;;;5028140;28;20084;-78
2023/01/10 15:03:17;;;;;;;13.43;2.50;;;;;;;;;;5026288;28;20067;-80
2023/01/10 15:05:51;;;;;;;14.85;2.53;;;;;;;;;;4986411;28;20097;-79
2023/01/10 15:08:21;;;;;;;16.75;2.85;;;;;;;;;;4977151;28;20080;-79
2023/01/10 15:10:48;;;;;;;15.98;3.28;;;;;;;;;;4979973;28;20593;-79